Time;durP1;ratioP1;P1;durP2;ratioP2;P2;SDS_P1;SDS_P2;PMS_P1;PMS_P2;Temp;Humidity;BMP_temperature;BMP_pressure;BME280_temperature;BME280_humidity;BME280_pressure;Samples;Min_cycle;Max_cycle;Signal;HPM_P1;HPM_P2
2024/04/12 00:00:32;;;;;;;;;;;;;;;12.79;51.88;99776.34;5489723;26;19996;-83
2024/04/12 00:02:58;;;;;;;;;;;;;;;12.79;52.39;99784.66;5490019;26;19939;-80
2024/04/12 00:05:23;;;;;;;;;;;;;;;12.81;52.54;99785.03;5491983;26;19951;-81
2024/04/12 00:08:01;;;;;;;;;;;;;;;12.77;52.78;99784.31;5489443;26;19932;-80
2024/04/12 00:10:26;;;;;;;;;;;;;;;12.83;51.88;99782.63;5490346;26;19939;-80
2024/04/12 00:12:52;;;;;;;;;;;;;;;12.88;51.23;99787.69;5489076;26;20372;-81
2024/04/12 00:15:21;;;;;;;;;;;;;;;12.84;51.65;99781.41;5489642;26;19967;-80
2024/04/12 00:17:47;;;;;;;;;;;;;;;12.81;51.96;99793.34;5491875;26;19927;-80
2024/04/12 00:20:13;;;;;;;;;;;;;;;12.73;52.55;99786.38;5489836;26;19997;-82
2024/04/12 00:22:38;;;;;;;;;;;;;;;12.70;52.82;99792.00;5488980;26;19928;-85
2024/04/12 00:25:04;;;;;;;;;;;;;;;12.70;52.94;99786.44;5489473;26;19939;-80
2024/04/12 00:27:33;;;;;;;;;;;;;;;12.70;52.03;99787.22;5489362;26;19940;-79
2024/04/12 00:30:03;;;;;;;;;;;;;;;12.63;52.98;99792.91;5490767;26;19964;-80
2024/04/12 00:32:28;;;;;;;;;;;;;;;12.66;52.24;99785.72;5489063;26;19935;-80
2024/04/12 00:34:54;;;;;;;;;;;;;;;12.58;53.02;99785.06;5491521;26;19928;-82
2024/04/12 00:37:27;;;;;;;;;;;;;;;12.61;53.21;99782.22;5489921;26;19934;-80
2024/04/12 00:39:54;;;;;;;;;;;;;;;12.57;53.60;99781.50;5490022;26;19932;-81
2024/04/12 00:42:30;;;;;;;;;;;;;;;12.50;53.49;99783.63;5489264;26;19928;-79
2024/04/12 00:44:58;;;;;;;;;;;;;;;12.62;52.90;99788.56;5489176;26;19971;-81
2024/04/12 00:47:23;;;;;;;;;;;;;;;12.58;53.48;99779.53;5491392;26;20026;-83
2024/04/12 00:49:49;;;;;;;;;;;;;;;12.62;53.43;99777.47;5489458;26;19940;-80
2024/04/12 00:52:16;;;;;;;;;;;;;;;12.67;53.16;99773.41;5491128;26;19979;-80
2024/04/12 00:54:42;;;;;;;;;;;;;;;12.65;53.17;99771.09;5490857;26;20264;-83
2024/04/12 00:57:09;;;;;;;;;;;;;;;12.63;53.15;99776.25;5489160;26;20359;-82
2024/04/12 00:59:35;;;;;;;;;;;;;;;12.62;53.07;99769.16;5489117;26;20063;-78
2024/04/12 01:02:08;;;;;;;;;;;;;;;12.62;53.26;99769.16;5489362;26;19936;-80
2024/04/12 01:04:34;;;;;;;;;;;;;;;12.59;52.87;99773.56;5488786;26;19996;-81
2024/04/12 01:06:59;;;;;;;;;;;;;;;12.63;53.28;99770.72;5489306;26;20355;-79
2024/04/12 01:09:25;;;;;;;;;;;;;;;12.75;52.71;99770.09;5488347;26;19928;-82
2024/04/12 01:11:50;;;;;;;;;;;;;;;12.84;52.76;99769.53;5488712;26;19936;-79
2024/04/12 01:14:16;;;;;;;;;;;;;;;12.84;51.94;99761.97;5488509;26;19939;-79
2024/04/12 01:16:42;;;;;;;;;;;;;;;12.86;52.06;99756.81;5489644;26;20387;-83
2024/04/12 01:19:12;;;;;;;;;;;;;;;12.84;52.14;99758.44;5490352;26;19928;-80
2024/04/12 01:21:37;;;;;;;;;;;;;;;12.87;51.93;99752.81;5490925;26;19932;-79
2024/04/12 01:24:06;;;;;;;;;;;;;;;12.92;51.58;99752.31;5488728;26;20272;-80
2024/04/12 01:26:31;;;;;;;;;;;;;;;12.83;51.80;99754.91;5472538;26;19978;-80
2024/04/12 01:28:57;;;;;;;;;;;;;;;12.81;52.22;99754.53;5457982;26;19940;-80
2024/04/12 01:31:23;;;;;;;;;;;;;;;12.78;52.39;99760.91;5489321;26;19931;-82
2024/04/12 01:33:49;;;;;;;;;;;;;;;12.87;51.86;99761.16;5508034;26;19928;-79
2024/04/12 01:36:18;;;;;;;;;;;;;;;12.90;52.54;99759.53;5512781;26;19927;-79
2024/04/12 01:38:45;;;;;;;;;;;;;;;12.83;53.03;99754.91;5493023;26;20317;-79
2024/04/12 01:41:11;;;;;;;;;;;;;;;12.74;53.12;99751.88;5489112;26;19928;-80
2024/04/12 01:43:36;;;;;;;;;;;;;;;12.63;52.72;99754.88;5488520;26;20482;-79
2024/04/12 01:46:04;;;;;;;;;;;;;;;12.74;52.93;99748.31;5490663;26;19939;-81
2024/04/12 01:48:33;;;;;;;;;;;;;;;12.84;52.16;99753.66;5489907;26;19928;-80
2024/04/12 01:51:02;;;;;;;;;;;;;;;12.82;52.76;99756.09;5490256;26;19928;-79
2024/04/12 01:53:27;;;;;;;;;;;;;;;12.79;53.21;99750.59;5488342;26;20311;-80
2024/04/12 01:55:52;;;;;;;;;;;;;;;12.74;53.37;99749.13;5488243;26;19977;-83
2024/04/12 01:58:19;;;;;;;;;;;;;;;12.65;53.44;99760.00;5488209;26;19927;-81
2024/04/12 02:00:45;;;;;;;;;;;;;;;12.61;53.75;99762.81;5489836;26;19932;-80
2024/04/12 02:03:13;;;;;;;;;;;;;;;12.53;53.84;99755.06;5463020;26;20272;-81
2024/04/12 02:05:38;;;;;;;;;;;;;;;12.54;54.24;99751.06;5488276;26;20377;-81
2024/04/12 02:08:10;;;;;;;;;;;;;;;12.44;54.51;99752.84;5487723;26;19936;-80
2024/04/12 02:10:40;;;;;;;;;;;;;;;12.48;54.44;99747.22;5487649;26;19939;-81
2024/04/12 02:13:06;;;;;;;;;;;;;;;12.60;54.32;99752.16;5487554;26;19927;-81
2024/04/12 02:15:32;;;;;;;;;;;;;;;12.68;54.23;99755.56;5467995;26;19936;-80
2024/04/12 02:17:57;;;;;;;;;;;;;;;12.69;54.62;99762.69;5477936;26;19960;-80
2024/04/12 02:20:36;;;;;;;;;;;;;;;12.68;54.34;99761.13;5466080;26;19972;-79
2024/04/12 02:23:04;;;;;;;;;;;;;;;12.68;54.45;99745.28;5489272;26;19928;-81
2024/04/12 02:25:31;;;;;;;;;;;;;;;12.68;54.80;99756.34;5489373;26;19932;-82
2024/04/12 02:27:57;;;;;;;;;;;;;;;12.72;54.75;99754.28;5457935;26;19929;-80
2024/04/12 02:30:23;;;;;;;;;;;;;;;12.75;54.81;99749.91;5501113;26;19956;-83
2024/04/12 02:32:50;;;;;;;;;;;;;;;12.78;55.04;99744.28;5487511;26;19939;-81
2024/04/12 02:35:15;;;;;;;;;;;;;;;12.83;54.77;99748.56;5489005;26;19943;-80
2024/04/12 02:37:41;;;;;;;;;;;;;;;12.84;55.14;99745.34;5487598;26;19932;-80
2024/04/12 02:40:07;;;;;;;;;;;;;;;12.98;53.96;99736.75;5487087;26;19928;-80
2024/04/12 02:42:33;;;;;;;;;;;;;;;12.98;54.24;99741.50;5487322;26;19955;-80
2024/04/12 02:44:59;;;;;;;;;;;;;;;12.98;54.51;99735.97;5488265;26;19928;-81
2024/04/12 02:47:24;;;;;;;;;;;;;;;13.08;54.40;99740.50;5490361;26;20108;-80
2024/04/12 02:49:52;;;;;;;;;;;;;;;13.11;54.55;99738.88;5490797;26;19935;-82
2024/04/12 02:52:18;;;;;;;;;;;;;;;13.18;54.47;99741.53;5490819;26;19940;-79
2024/04/12 02:54:44;;;;;;;;;;;;;;;13.31;53.61;99745.22;5490817;26;19940;-80
2024/04/12 02:57:10;;;;;;;;;;;;;;;13.35;53.87;99743.94;5492384;26;19928;-80
2024/04/12 02:59:35;;;;;;;;;;;;;;;13.36;53.96;99745.50;5490312;26;19935;-80
2024/04/12 03:02:00;;;;;;;;;;;;;;;13.42;53.70;99743.78;5490763;26;19939;-81
2024/04/12 03:04:25;;;;;;;;;;;;;;;13.49;53.12;99745.63;5489872;26;19936;-79
2024/04/12 03:06:52;;;;;;;;;;;;;;;13.47;53.65;99744.47;5490466;26;19939;-79
2024/04/12 03:09:18;;;;;;;;;;;;;;;13.51;53.94;99754.28;5490286;26;20313;-81
2024/04/12 03:11:44;;;;;;;;;;;;;;;13.51;54.01;99754.28;5490463;26;19928;-80
2024/04/12 03:14:11;;;;;;;;;;;;;;;13.56;53.42;99755.78;5490724;26;19943;-80
2024/04/12 03:16:37;;;;;;;;;;;;;;;13.59;53.90;99752.91;5490675;26;20244;-82
2024/04/12 03:19:07;;;;;;;;;;;;;;;13.53;53.69;99753.84;5490617;26;19943;-81
2024/04/12 03:21:33;;;;;;;;;;;;;;;13.42;54.33;99746.56;5490595;26;19928;-82
2024/04/12 03:23:59;;;;;;;;;;;;;;;13.58;53.91;99740.25;5492178;26;19928;-80
2024/04/12 03:26:24;;;;;;;;;;;;;;;13.42;53.89;99756.88;5492965;26;19940;-82
2024/04/12 03:28:53;;;;;;;;;;;;;;;13.54;54.08;99753.44;5487668;26;19927;-81
2024/04/12 03:31:19;;;;;;;;;;;;;;;13.64;52.88;99755.19;5463920;26;19929;-82
2024/04/12 03:33:44;;;;;;;;;;;;;;;13.62;53.65;99751.28;5483339;26;19939;-82
2024/04/12 03:36:26;;;;;;;;;;;;;;;13.43;54.03;99755.66;5490327;26;20356;-79
2024/04/12 03:39:18;;;;;;;;;;;;;;;13.43;54.15;99750.91;5490320;26;19956;-82
2024/04/12 03:41:38;;;;;;;;;;;;;;;13.53;53.71;99762.97;5491481;26;19938;-82
2024/04/12 03:44:08;;;;;;;;;;;;;;;13.53;53.47;99759.41;5484679;26;19935;-80
2024/04/12 03:46:34;;;;;;;;;;;;;;;13.47;54.00;99761.13;5475345;26;19940;-81
2024/04/12 03:49:01;;;;;;;;;;;;;;;13.45;53.88;99756.78;5476895;26;20001;-80
2024/04/12 03:51:26;;;;;;;;;;;;;;;13.54;53.99;99758.97;5475376;26;19939;-80
2024/04/12 03:53:54;;;;;;;;;;;;;;;13.49;53.71;99761.50;5490066;26;20356;-80
2024/04/12 03:56:20;;;;;;;;;;;;;;;13.43;54.11;99766.78;5490872;26;20344;-80
2024/04/12 03:58:46;;;;;;;;;;;;;;;13.42;54.08;99770.75;5490532;26;19928;-79
2024/04/12 04:01:12;;;;;;;;;;;;;;;13.41;54.36;99772.75;5465757;26;19974;-80
2024/04/12 04:03:49;;;;;;;;;;;;;;;13.49;54.46;99770.59;5490348;26;19936;-80
2024/04/12 04:06:14;;;;;;;;;;;;;;;13.49;54.38;99770.59;5491793;26;19967;-79
2024/04/12 04:08:48;;;;;;;;;;;;;;;13.61;54.05;99771.94;5490388;26;20358;-79
2024/04/12 04:11:16;;;;;;;;;;;;;;;13.57;53.85;99785.88;5502319;26;19964;-81
2024/04/12 04:13:44;;;;;;;;;;;;;;;13.65;54.32;99781.75;5513906;26;19935;-79
2024/04/12 04:16:10;;;;;;;;;;;;;;;13.71;54.61;99774.47;5504194;26;19928;-80
2024/04/12 04:18:35;;;;;;;;;;;;;;;13.86;54.79;99772.91;5490127;26;19940;-82
2024/04/12 04:21:07;;;;;;;;;;;;;;;14.00;54.32;99793.25;5489542;26;20022;-80
2024/04/12 04:23:38;;;;;;;;;;;;;;;14.17;53.89;99783.69;5490257;26;19956;-84
2024/04/12 04:26:08;;;;;;;;;;;;;;;14.30;53.45;99783.78;5490845;26;19955;-80
2024/04/12 04:28:40;;;;;;;;;;;;;;;14.31;53.92;99791.69;5489285;26;19996;-82
2024/04/12 04:31:06;;;;;;;;;;;;;;;14.38;54.06;99794.31;5489624;26;19936;-84
2024/04/12 04:33:35;;;;;;;;;;;;;;;14.35;53.35;99788.81;5489136;26;19996;-82
2024/04/12 04:36:09;;;;;;;;;;;;;;;14.52;52.86;99785.63;5489693;26;19935;-85
2024/04/12 04:38:40;;;;;;;;;;;;;;;14.76;51.93;99800.09;5489289;26;19960;-83
2024/04/12 04:41:06;;;;;;;;;;;;;;;15.16;51.13;99800.59;5491833;26;19982;-85
2024/04/12 04:43:32;;;;;;;;;;;;;;;15.42;50.79;99795.88;5489512;26;19928;-83
2024/04/12 04:46:09;;;;;;;;;;;;;;;15.82;49.45;99799.06;5490292;26;19928;-82
2024/04/12 04:48:35;;;;;;;;;;;;;;;16.16;48.27;99801.94;5483819;26;20241;-82
2024/04/12 04:51:01;;;;;;;;;;;;;;;16.44;47.94;99799.47;5478845;26;19934;-85
2024/04/12 04:53:29;;;;;;;;;;;;;;;16.50;47.78;99803.25;5489347;26;19936;-82
2024/04/12 04:56:00;;;;;;;;;;;;;;;16.62;47.39;99813.63;5463886;26;19956;-83
2024/04/12 04:58:28;;;;;;;;;;;;;;;16.89;46.83;99805.47;5454299;26;19928;-83
2024/04/12 05:00:53;;;;;;;;;;;;;;;17.01;47.03;99809.44;5479384;26;19940;-83
2024/04/12 05:03:19;;;;;;;;;;;;;;;17.34;45.96;99813.44;5470874;26;19956;-84
2024/04/12 05:05:44;;;;;;;;;;;;;;;17.43;45.81;99805.09;5488129;26;19936;-83
2024/04/12 05:08:10;;;;;;;;;;;;;;;17.77;45.67;99812.63;5489039;26;19932;-82
2024/04/12 05:10:35;;;;;;;;;;;;;;;18.10;44.91;99806.53;5481250;26;19935;-82
2024/04/12 05:13:04;;;;;;;;;;;;;;;18.13;45.08;99811.22;5488742;26;19996;-82
2024/04/12 05:18:12;;;;;;;;;;;;;;;18.52;44.33;99815.22;5479045;26;19928;-80
2024/04/12 05:20:41;;;;;;;;;;;;;;;18.78;44.57;99812.94;5488327;26;20256;-80
2024/04/12 05:23:14;;;;;;;;;;;;;;;19.53;43.14;99807.66;5488867;26;20251;-79
2024/04/12 05:25:40;;;;;;;;;;;;;;;19.61;43.06;99815.25;5482652;26;19932;-81
2024/04/12 05:28:09;;;;;;;;;;;;;;;19.91;42.25;99824.66;5472255;26;19928;-81
2024/04/12 05:30:36;;;;;;;;;;;;;;;19.90;42.72;99818.28;5488109;26;20359;-80
2024/04/12 05:33:04;;;;;;;;;;;;;;;20.34;41.72;99825.44;5467799;26;19935;-80
2024/04/12 05:35:30;;;;;;;;;;;;;;;20.54;41.21;99829.22;5485851;26;19935;-80
2024/04/12 05:37:58;;;;;;;;;;;;;;;20.80;41.33;99823.88;5466593;26;19940;-80
2024/04/12 05:40:25;;;;;;;;;;;;;;;21.31;39.64;99828.50;5485919;26;19939;-83
2024/04/12 05:42:51;;;;;;;;;;;;;;;21.31;40.43;99825.69;5490356;26;19928;-80
2024/04/12 05:45:19;;;;;;;;;;;;;;;21.40;39.41;99817.16;5490075;26;19935;-80
2024/04/12 05:47:45;;;;;;;;;;;;;;;21.52;39.67;99822.50;5490648;26;19928;-80
2024/04/12 05:50:12;;;;;;;;;;;;;;;21.97;38.91;99822.53;5488456;26;19928;-80
2024/04/12 05:52:37;;;;;;;;;;;;;;;22.65;38.62;99818.16;5488386;26;19932;-80
2024/04/12 05:55:10;;;;;;;;;;;;;;;22.38;38.58;99821.38;5487436;26;19939;-80
2024/04/12 05:57:36;;;;;;;;;;;;;;;22.68;37.71;99820.00;5488058;26;19928;-81
2024/04/12 06:00:09;;;;;;;;;;;;;;;22.63;38.02;99817.88;5488217;26;19935;-80
2024/04/12 06:02:37;;;;;;;;;;;;;;;22.81;37.61;99821.72;5487921;26;20252;-80
2024/04/12 06:05:05;;;;;;;;;;;;;;;23.17;37.68;99821.13;5486547;26;20398;-80
2024/04/12 06:07:35;;;;;;;;;;;;;;;23.37;36.99;99814.66;5487796;26;19936;-80
2024/04/12 06:10:01;;;;;;;;;;;;;;;23.83;36.88;99823.84;5487027;26;20470;-84
2024/04/12 06:12:33;;;;;;;;;;;;;;;24.40;35.67;99819.41;5486173;26;19928;-82
2024/04/12 06:15:00;;;;;;;;;;;;;;;25.04;34.98;99819.50;5486441;26;19996;-82
2024/04/12 06:17:25;;;;;;;;;;;;;;;25.11;33.92;99819.00;5483835;26;19939;-80
2024/04/12 06:19:55;;;;;;;;;;;;;;;24.99;34.57;99817.44;5482999;26;19956;-81
2024/04/12 06:22:26;;;;;;;;;;;;;;;24.61;35.10;99834.94;5486368;26;19928;-79
2024/04/12 06:24:51;;;;;;;;;;;;;;;24.55;35.52;99831.31;5486734;26;19935;-81
2024/04/12 06:27:17;;;;;;;;;;;;;;;25.10;35.02;99828.78;5486930;26;19928;-79
2024/04/12 06:29:44;;;;;;;;;;;;;;;25.89;33.96;99821.22;5489603;26;20300;-82
2024/04/12 06:32:09;;;;;;;;;;;;;;;26.42;32.43;99817.31;5489115;26;19928;-80
2024/04/12 06:34:37;;;;;;;;;;;;;;;26.33;32.71;99818.38;5487787;26;19928;-81
2024/04/12 06:37:06;;;;;;;;;;;;;;;26.34;32.90;99819.16;5487615;26;19928;-80
2024/04/12 06:39:31;;;;;;;;;;;;;;;25.90;33.59;99822.75;5487532;26;19996;-82
2024/04/12 06:42:03;;;;;;;;;;;;;;;26.22;32.82;99824.00;5487046;26;19936;-81
2024/04/12 06:44:30;;;;;;;;;;;;;;;26.23;33.42;99819.91;5489563;26;19932;-80
2024/04/12 06:46:58;;;;;;;;;;;;;;;26.47;32.34;99822.19;5490762;26;19928;-81
2024/04/12 06:49:27;;;;;;;;;;;;;;;25.68;34.04;99831.25;5511487;26;19934;-80
2024/04/12 06:52:11;;;;;;;;;;;;;;;25.07;35.54;99821.31;5507035;26;19935;-80
2024/04/12 06:54:40;;;;;;;;;;;;;;;24.45;35.59;99827.16;5487429;26;19931;-80
2024/04/12 06:57:06;;;;;;;;;;;;;;;24.93;36.21;99822.28;5487041;26;19927;-82
2024/04/12 06:59:44;;;;;;;;;;;;;;;25.97;34.53;99821.47;5489026;26;19996;-80
2024/04/12 07:02:09;;;;;;;;;;;;;;;25.55;35.18;99817.56;5486727;26;19992;-79
2024/04/12 07:04:38;;;;;;;;;;;;;;;26.42;33.25;99814.47;5485666;26;19939;-79
2024/04/12 07:07:06;;;;;;;;;;;;;;;27.20;32.37;99819.88;5485377;26;19928;-81
2024/04/12 07:09:32;;;;;;;;;;;;;;;28.22;31.10;99822.25;5488962;26;19935;-82
2024/04/12 07:12:14;;;;;;;;;;;;;;;28.43;31.34;99813.28;5489473;26;19935;-84
2024/04/12 07:14:41;;;;;;;;;;;;;;;28.55;32.04;99812.63;5488975;26;19928;-83
2024/04/12 07:17:19;;;;;;;;;;;;;;;28.79;31.36;99820.38;5489073;26;20071;-82
2024/04/12 07:19:49;;;;;;;;;;;;;;;29.05;30.42;99820.56;5481066;26;19935;-82
2024/04/12 07:22:18;;;;;;;;;;;;;;;29.71;30.21;99820.94;5475022;26;20328;-82
2024/04/12 07:24:47;;;;;;;;;;;;;;;30.66;28.50;99822.94;5487030;26;19934;-82
2024/04/12 07:27:15;;;;;;;;;;;;;;;29.98;28.30;99812.50;5487246;26;19960;-82
2024/04/12 07:29:44;;;;;;;;;;;;;;;30.21;28.78;99814.41;5486867;26;19935;-81
2024/04/12 07:32:10;;;;;;;;;;;;;;;30.17;28.98;99811.13;5489355;26;19940;-82
2024/04/12 07:34:48;;;;;;;;;;;;;;;30.89;28.00;99816.75;5488742;26;20391;-83
2024/04/12 07:37:13;;;;;;;;;;;;;;;30.74;26.65;99820.94;5488565;26;19936;-84
2024/04/12 07:39:40;;;;;;;;;;;;;;;31.11;26.41;99819.94;5489043;26;19947;-82
2024/04/12 07:42:08;;;;;;;;;;;;;;;31.40;26.50;99820.84;5489641;26;19928;-82
2024/04/12 07:44:35;;;;;;;;;;;;;;;31.24;25.77;99816.28;5489497;26;19928;-81
2024/04/12 07:47:06;;;;;;;;;;;;;;;31.69;25.85;99818.91;5488568;26;19934;-82
2024/04/12 07:49:39;;;;;;;;;;;;;;;31.29;26.49;99820.31;5489693;26;20348;-82
2024/04/12 07:52:09;;;;;;;;;;;;;;;30.20;27.32;99806.41;5489104;26;19996;-82
2024/04/12 07:54:35;;;;;;;;;;;;;;;29.40;28.45;99825.28;5489632;26;19931;-81
2024/04/12 07:57:07;;;;;;;;;;;;;;;28.75;29.50;99813.47;5488768;26;19927;-81
2024/04/12 07:59:33;;;;;;;;;;;;;;;28.60;29.03;99811.00;5489674;26;19932;-81
2024/04/12 08:02:05;;;;;;;;;;;;;;;28.61;28.73;99813.31;5491028;26;20088;-84
2024/04/12 08:04:36;;;;;;;;;;;;;;;27.80;29.84;99811.50;5489602;26;19927;-81
2024/04/12 08:07:06;;;;;;;;;;;;;;;27.67;30.37;99802.84;5491791;26;19939;-81
2024/04/12 08:09:34;;;;;;;;;;;;;;;27.55;30.48;99807.06;5489394;26;19928;-81
2024/04/12 08:12:13;;;;;;;;;;;;;;;27.54;31.88;99800.59;5489577;26;19928;-81
2024/04/12 08:14:39;;;;;;;;;;;;;;;27.35;31.28;99791.94;5488827;26;19936;-82
2024/04/12 08:17:14;;;;;;;;;;;;;;;27.49;30.56;99790.78;5483228;26;19940;-81
2024/04/12 08:19:45;;;;;;;;;;;;;;;27.35;31.21;99789.09;5486032;26;20368;-81
2024/04/12 08:22:17;;;;;;;;;;;;;;;27.17;31.60;99788.94;5491151;26;19952;-83
2024/04/12 08:24:44;;;;;;;;;;;;;;;27.17;30.78;99798.22;5490713;26;19934;-81
2024/04/12 08:27:09;;;;;;;;;;;;;;;26.97;31.00;99799.34;5488973;26;19928;-80
2024/04/12 08:29:34;;;;;;;;;;;;;;;27.07;29.24;99791.31;5488783;26;19936;-79
2024/04/12 08:32:11;;;;;;;;;;;;;;;27.19;29.66;99795.63;5488373;26;19934;-80
2024/04/12 08:34:44;;;;;;;;;;;;;;;27.02;30.71;99792.88;5488651;26;19928;-80
2024/04/12 08:37:16;;;;;;;;;;;;;;;26.95;32.19;99781.31;5489415;26;19928;-80
2024/04/12 08:39:44;;;;;;;;;;;;;;;27.06;30.59;99789.78;5491267;26;19927;-81
2024/04/12 08:42:14;;;;;;;;;;;;;;;27.05;32.43;99783.34;5487963;26;20341;-82
2024/04/12 08:44:40;;;;;;;;;;;;;;;26.90;29.99;99776.44;5483589;26;19940;-81
2024/04/12 08:47:16;;;;;;;;;;;;;;;27.06;32.27;99784.13;5487360;26;19939;-83
2024/04/12 08:49:45;;;;;;;;;;;;;;;27.14;32.84;99782.25;5491593;26;20000;-81
2024/04/12 08:52:24;;;;;;;;;;;;;;;27.28;31.88;99775.47;5491095;26;19939;-82
2024/04/12 08:54:54;;;;;;;;;;;;;;;26.64;32.44;99769.03;5490787;26;19928;-82
2024/04/12 08:57:21;;;;;;;;;;;;;;;26.70;30.08;99771.88;5490874;26;19939;-84
2024/04/12 08:59:47;;;;;;;;;;;;;;;27.10;31.26;99764.75;5490427;26;20367;-82
2024/04/12 09:02:13;;;;;;;;;;;;;;;27.17;31.33;99771.91;5452433;26;19929;-83
2024/04/12 09:04:40;;;;;;;;;;;;;;;27.29;30.24;99771.31;5478962;26;19935;-83
2024/04/12 09:07:05;;;;;;;;;;;;;;;27.52;29.22;99769.91;5482726;26;19939;-82
2024/04/12 09:09:30;;;;;;;;;;;;;;;27.56;30.39;99766.00;5479871;26;19936;-82
2024/04/12 09:12:01;;;;;;;;;;;;;;;27.37;29.71;99760.94;5490233;26;19996;-82
2024/04/12 09:14:26;;;;;;;;;;;;;;;27.38;29.52;99762.47;5488282;26;19934;-82
2024/04/12 09:17:00;;;;;;;;;;;;;;;27.32;30.86;99753.22;5490825;26;19928;-82
2024/04/12 09:19:28;;;;;;;;;;;;;;;27.40;31.71;99754.22;5488752;26;19996;-84
2024/04/12 09:22:02;;;;;;;;;;;;;;;27.53;30.81;99753.63;5506721;26;19931;-81
2024/04/12 09:24:31;;;;;;;;;;;;;;;27.08;30.97;99739.72;5510978;26;19920;-80
2024/04/12 09:26:58;;;;;;;;;;;;;;;27.21;28.79;99741.19;5493479;26;19928;-82
2024/04/12 09:29:27;;;;;;;;;;;;;;;27.19;28.50;99744.53;5479081;26;19929;-82
2024/04/12 09:32:50;;;;;;;;;;;;;;;26.79;29.74;99739.59;5474920;26;19935;-84
2024/04/12 09:34:42;;;;;;;;;;;;;;;26.86;30.22;99739.81;5474824;26;20295;-83
2024/04/12 09:40:26;;;;;;;;;;;;;;;27.16;31.10;99731.44;5469691;26;19935;-83
2024/04/12 09:43:25;;;;;;;;;;;;;;;26.74;29.44;99727.78;5465626;26;20428;-85
2024/04/12 09:45:45;;;;;;;;;;;;;;;26.91;28.88;99724.09;5489731;26;19996;-82
2024/04/12 10:38:09;;;;;;;;;;;;;;;27.18;29.23;99674.94;5488271;26;19935;-82
2024/04/12 10:40:36;;;;;;;;;;;;;;;26.85;28.80;99670.22;5487034;26;19961;-80
2024/04/12 10:43:02;;;;;;;;;;;;;;;26.68;30.82;99661.81;5487183;26;20341;-81
2024/04/12 10:45:29;;;;;;;;;;;;;;;26.72;30.07;99670.03;5486562;26;19939;-80
2024/04/12 10:47:55;;;;;;;;;;;;;;;26.96;30.81;99663.72;5489281;26;19964;-81
2024/04/12 10:50:22;;;;;;;;;;;;;;;26.98;31.48;99661.13;5487095;26;20372;-82
2024/04/12 10:52:48;;;;;;;;;;;;;;;27.02;28.39;99653.88;5488978;26;19930;-81
2024/04/12 10:55:16;;;;;;;;;;;;;;;26.86;29.84;99653.97;5486886;26;20356;-80
2024/04/12 10:57:50;;;;;;;;;;;;;;;26.68;26.54;99644.81;5489106;26;19928;-84
2024/04/12 11:00:17;;;;;;;;;;;;;;;26.74;28.20;99654.06;5487474;26;19928;-81
2024/04/12 11:02:46;;;;;;;;;;;;;;;26.70;26.40;99655.63;5487445;26;19964;-80
2024/04/12 11:07:50;;;;;;;;;;;;;;;26.21;25.86;99657.38;5492497;26;20413;-81
2024/04/12 11:10:37;;;;;;;;;;;;;;;25.93;25.81;99646.91;5490667;26;19928;-82
2024/04/12 11:13:06;;;;;;;;;;;;;;;25.99;26.77;99644.06;5490307;26;19950;-81
2024/04/12 11:31:49;;;;;;;;;;;;;;;26.14;26.79;99624.72;5492068;26;20419;-83
2024/04/12 11:34:21;;;;;;;;;;;;;;;25.92;27.13;99617.03;5490102;26;19928;-82
2024/04/12 11:36:46;;;;;;;;;;;;;;;25.78;27.48;99617.38;5467680;26;20348;-80
2024/04/12 11:39:17;;;;;;;;;;;;;;;25.83;28.16;99620.19;5480442;26;19929;-80
2024/04/12 11:41:44;;;;;;;;;;;;;;;26.01;29.52;99606.72;5478006;26;19935;-81
2024/04/12 11:44:10;;;;;;;;;;;;;;;26.09;28.05;99593.56;5482499;26;19936;-82
2024/04/12 11:46:36;;;;;;;;;;;;;;;26.33;30.20;99596.56;5474614;26;20193;-80
2024/04/12 11:49:07;;;;;;;;;;;;;;;26.42;27.58;99601.91;5480628;26;19935;-83
2024/04/12 11:51:33;;;;;;;;;;;;;;;26.15;27.74;99597.16;5470966;26;19928;-81
2024/04/12 11:53:59;;;;;;;;;;;;;;;26.14;27.19;99599.22;5513666;25;19997;-81
2024/04/12 11:56:24;;;;;;;;;;;;;;;26.03;27.81;99590.75;5488320;26;20014;-81
2024/04/12 11:58:51;;;;;;;;;;;;;;;26.23;28.20;99586.78;5501193;26;19951;-79
2024/04/12 12:01:16;;;;;;;;;;;;;;;26.39;29.69;99580.31;5491713;26;19929;-81
2024/04/12 12:03:42;;;;;;;;;;;;;;;26.29;28.95;99581.88;5477882;26;19935;-81
2024/04/12 12:06:07;;;;;;;;;;;;;;;26.04;26.90;99574.53;5456814;26;20389;-82
2024/04/12 12:08:37;;;;;;;;;;;;;;;26.23;29.01;99572.63;5457375;26;20416;-84
2024/04/12 12:11:05;;;;;;;;;;;;;;;26.30;29.38;99567.22;5472610;26;19929;-82
2024/04/12 12:13:32;;;;;;;;;;;;;;;26.29;28.67;99564.88;5483652;26;19977;-84
2024/04/12 12:15:58;;;;;;;;;;;;;;;26.26;30.25;99561.06;5478615;26;19978;-82
2024/04/12 12:18:27;;;;;;;;;;;;;;;26.41;29.17;99557.09;5479624;26;19936;-82
2024/04/12 12:20:52;;;;;;;;;;;;;;;26.15;27.54;99560.31;5483163;26;20245;-83
2024/04/12 12:23:18;;;;;;;;;;;;;;;25.90;29.25;99562.25;5479396;26;19928;-83
2024/04/12 12:25:43;;;;;;;;;;;;;;;26.03;29.31;99556.00;5484507;26;19928;-84
2024/04/12 12:28:09;;;;;;;;;;;;;;;26.15;28.03;99552.59;5467363;26;20349;-83
2024/04/12 12:30:34;;;;;;;;;;;;;;;26.24;27.70;99551.53;5475280;26;19929;-84
2024/04/12 12:33:00;;;;;;;;;;;;;;;26.08;27.11;99543.88;5466016;26;19994;-82
2024/04/12 12:35:25;;;;;;;;;;;;;;;25.80;27.97;99544.75;5461322;26;19928;-82
2024/04/12 12:37:51;;;;;;;;;;;;;;;25.89;28.36;99538.03;5483923;26;20244;-81
2024/04/12 12:40:21;;;;;;;;;;;;;;;26.09;29.10;99534.09;5487758;26;20348;-81
2024/04/12 12:42:47;;;;;;;;;;;;;;;26.24;28.56;99528.88;5470975;26;19928;-83
2024/04/12 12:45:16;;;;;;;;;;;;;;;26.24;29.53;99531.69;5465882;26;19936;-81
2024/04/12 12:47:42;;;;;;;;;;;;;;;26.41;29.85;99534.41;5468399;26;19997;-84
2024/04/12 12:50:19;;;;;;;;;;;;;;;26.47;29.22;99533.09;5456700;26;19944;-83
2024/04/12 12:52:49;;;;;;;;;;;;;;;26.38;28.07;99530.59;5460175;26;19933;-83
2024/04/12 12:55:15;;;;;;;;;;;;;;;26.39;28.83;99526.47;5474685;26;20041;-82
2024/04/12 12:57:44;;;;;;;;;;;;;;;26.37;28.07;99526.22;5461407;26;20353;-83
2024/04/12 13:00:18;;;;;;;;;;;;;;;26.46;26.80;99527.97;5477141;26;19940;-82
2024/04/12 13:02:44;;;;;;;;;;;;;;;26.52;26.73;99520.97;5473235;26;19970;-82
2024/04/12 13:05:14;;;;;;;;;;;;;;;26.60;29.08;99518.31;5474596;26;20295;-82
2024/04/12 13:07:39;;;;;;;;;;;;;;;26.55;29.64;99517.06;5516373;25;19935;-83
2024/04/12 13:10:12;;;;;;;;;;;;;;;26.37;28.81;99508.44;5487285;26;19936;-83
2024/04/12 13:12:38;;;;;;;;;;;;;;;26.27;28.77;99508.00;5482129;26;19936;-83
2024/04/12 13:15:04;;;;;;;;;;;;;;;26.13;28.37;99504.19;5489514;26;19940;-82
2024/04/12 13:17:36;;;;;;;;;;;;;;;26.12;29.03;99501.88;5489072;26;20000;-82
2024/04/12 13:20:05;;;;;;;;;;;;;;;26.12;29.39;99510.38;5488695;26;19935;-83
2024/04/12 13:22:32;;;;;;;;;;;;;;;26.15;30.40;99498.00;5488707;26;19927;-84
2024/04/12 13:24:57;;;;;;;;;;;;;;;26.25;29.05;99500.00;5469865;26;20303;-82
2024/04/12 13:27:23;;;;;;;;;;;;;;;26.37;29.36;99488.59;5478124;26;19928;-82
2024/04/12 13:29:48;;;;;;;;;;;;;;;26.33;28.51;99495.34;5488204;26;19974;-81
2024/04/12 13:32:14;;;;;;;;;;;;;;;26.06;28.05;99496.25;5484943;26;19995;-82
2024/04/12 13:34:39;;;;;;;;;;;;;;;26.18;28.53;99500.53;5479141;26;20353;-83
2024/04/12 13:37:06;;;;;;;;;;;;;;;25.77;28.29;99494.09;5476873;26;19932;-82
2024/04/12 13:39:34;;;;;;;;;;;;;;;25.90;28.24;99488.63;5487363;26;19934;-84
2024/04/12 13:42:03;;;;;;;;;;;;;;;26.07;28.87;99483.63;5486734;26;19934;-83
2024/04/12 13:52:44;;;;;;;;;;;;;;;26.28;28.86;99481.22;5490011;26;19996;-83
2024/04/12 13:55:11;;;;;;;;;;;;;;;26.34;29.11;99477.00;5487975;26;19939;-84
2024/04/12 13:57:40;;;;;;;;;;;;;;;26.57;28.86;99471.97;5487552;26;20159;-83
2024/04/12 14:00:09;;;;;;;;;;;;;;;26.58;28.06;99476.31;5457540;26;20013;-82
2024/04/12 14:02:35;;;;;;;;;;;;;;;26.62;28.06;99470.38;5451975;26;19940;-83
2024/04/12 14:05:02;;;;;;;;;;;;;;;26.66;28.96;99474.44;5479455;26;19961;-83
2024/04/12 14:07:33;;;;;;;;;;;;;;;26.59;27.91;99466.50;5504555;26;19928;-83
2024/04/12 14:10:01;;;;;;;;;;;;;;;26.62;27.51;99454.13;5488231;26;19952;-83
2024/04/12 14:12:26;;;;;;;;;;;;;;;26.73;29.38;99456.09;5488143;26;19935;-85
2024/04/12 14:14:52;;;;;;;;;;;;;;;26.70;28.86;99460.00;5465908;26;20274;-83